Terminal Aerodrome Forecast
Issued by NWS

Home | Current Version | Previous Version | Graphics & Text | Print | Product List | Glossary On
Versions: 1 2 3 4 5 6 7 8 9 10 11 12 13 14 15 16 17 18 19 20 21 22 23 24 25
000
FTUS43 KTOP 262010 AAB
TAFFOE
TAF AMD
KFOE 262010Z 2620/2718 15007KT P6SM VCTS SCT025 BKN035CB
      TEMPO 2620/2624 6SM -TSRA
     FM270100 16007KT P6SM SCT025 BKN100
     FM270900 18006KT P6SM VCTS SCT018 BKN030CB
     FM271400 19007KT P6SM SCT018 BKN040=

USA.gov is the U.S. government's official web portal to all federal, state and local government web resources and services.